sensor_id;sensor_type;location;lat;lon;timestamp;pressure;altitude;pressure_sealevel;temperature;humidity
72465;BME280;60471;52.150;4.508;2023-08-01T00:00:52;99608.19;;;18.69;73.70
72465;BME280;60471;52.150;4.508;2023-08-01T00:03:18;99608.34;;;18.67;72.95
72465;BME280;60471;52.150;4.508;2023-08-01T00:05:44;99604.44;;;18.79;72.42
72465;BME280;60471;52.150;4.508;2023-08-01T00:08:11;99598.91;;;18.63;73.19
72465;BME280;60471;52.150;4.508;2023-08-01T00:10:39;99609.22;;;18.76;73.00
72465;BME280;60471;52.150;4.508;2023-08-01T00:13:05;99593.16;;;18.68;73.59
72465;BME280;60471;52.150;4.508;2023-08-01T00:15:32;99598.69;;;18.74;73.58
72465;BME280;60471;52.150;4.508;2023-08-01T00:17:58;99589.38;;;18.61;74.04
72465;BME280;60471;52.150;4.508;2023-08-01T00:20:25;99586.13;;;18.49;74.24
72465;BME280;60471;52.150;4.508;2023-08-01T00:22:51;99579.78;;;18.68;73.63
72465;BME280;60471;52.150;4.508;2023-08-01T00:25:18;99582.47;;;18.68;73.57
72465;BME280;60471;52.150;4.508;2023-08-01T00:27:44;99578.53;;;18.62;73.41
72465;BME280;60471;52.150;4.508;2023-08-01T00:30:10;99577.28;;;18.48;74.39
72465;BME280;60471;52.150;4.508;2023-08-01T00:32:37;99578.19;;;18.57;74.12
72465;BME280;60471;52.150;4.508;2023-08-01T00:35:04;99565.44;;;18.51;74.21
72465;BME280;60471;52.150;4.508;2023-08-01T00:37:30;99572.53;;;18.60;73.98
72465;BME280;60471;52.150;4.508;2023-08-01T00:39:56;99563.16;;;18.56;74.38
72465;BME280;60471;52.150;4.508;2023-08-01T00:42:23;99557.75;;;18.48;74.27
72465;BME280;60471;52.150;4.508;2023-08-01T00:44:49;99546.22;;;18.47;74.55
72465;BME280;60471;52.150;4.508;2023-08-01T00:47:17;99550.34;;;18.42;74.85
72465;BME280;60471;52.150;4.508;2023-08-01T00:49:44;99554.91;;;18.32;75.08
72465;BME280;60471;52.150;4.508;2023-08-01T00:52:10;99556.75;;;18.49;74.46
72465;BME280;60471;52.150;4.508;2023-08-01T00:54:36;99544.63;;;18.37;75.18
72465;BME280;60471;52.150;4.508;2023-08-01T00:57:03;99553.59;;;18.53;74.30
72465;BME280;60471;52.150;4.508;2023-08-01T00:59:30;99544.56;;;18.72;73.61
72465;BME280;60471;52.150;4.508;2023-08-01T01:01:58;99546.09;;;18.75;73.41
72465;BME280;60471;52.150;4.508;2023-08-01T01:04:26;99538.28;;;18.81;73.01
72465;BME280;60471;52.150;4.508;2023-08-01T01:07:03;99538.34;;;18.90;72.73
72465;BME280;60471;52.150;4.508;2023-08-01T01:09:32;99535.25;;;18.76;73.02
72465;BME280;60471;52.150;4.508;2023-08-01T01:11:59;99540.13;;;18.81;72.87
72465;BME280;60471;52.150;4.508;2023-08-01T01:14:26;99536.44;;;18.82;73.20
72465;BME280;60471;52.150;4.508;2023-08-01T01:16:55;99532.47;;;18.86;73.91
72465;BME280;60471;52.150;4.508;2023-08-01T01:19:21;99539.56;;;18.69;75.00
72465;BME280;60471;52.150;4.508;2023-08-01T01:21:48;99553.44;;;18.55;75.98
72465;BME280;60471;52.150;4.508;2023-08-01T01:24:15;99542.06;;;18.71;75.38
72465;BME280;60471;52.150;4.508;2023-08-01T01:26:42;99536.56;;;18.54;76.27
72465;BME280;60471;52.150;4.508;2023-08-01T01:29:10;99538.06;;;18.75;75.70
72465;BME280;60471;52.150;4.508;2023-08-01T01:31:38;99541.31;;;18.87;75.12
72465;BME280;60471;52.150;4.508;2023-08-01T01:34:05;99546.91;;;18.67;71.29
72465;BME280;60471;52.150;4.508;2023-08-01T01:36:31;99539.41;;;18.53;69.61
72465;BME280;60471;52.150;4.508;2023-08-01T01:38:58;99536.63;;;18.63;69.17
72465;BME280;60471;52.150;4.508;2023-08-01T01:41:24;99527.53;;;18.73;68.77
72465;BME280;60471;52.150;4.508;2023-08-01T01:43:51;99535.63;;;18.64;68.70
72465;BME280;60471;52.150;4.508;2023-08-01T01:46:17;99525.28;;;18.43;69.99
72465;BME280;60471;52.150;4.508;2023-08-01T01:48:43;99525.53;;;18.75;69.86
72465;BME280;60471;52.150;4.508;2023-08-01T01:51:09;99528.44;;;18.82;69.95
72465;BME280;60471;52.150;4.508;2023-08-01T01:53:36;99523.88;;;18.74;70.18
72465;BME280;60471;52.150;4.508;2023-08-01T01:56:02;99524.03;;;18.55;72.28
72465;BME280;60471;52.150;4.508;2023-08-01T01:58:28;99523.44;;;18.35;74.50
72465;BME280;60471;52.150;4.508;2023-08-01T02:00:54;99541.06;;;18.28;75.41
72465;BME280;60471;52.150;4.508;2023-08-01T02:03:20;99527.34;;;18.49;75.10
72465;BME280;60471;52.150;4.508;2023-08-01T02:05:47;99517.72;;;18.56;75.10
72465;BME280;60471;52.150;4.508;2023-08-01T02:08:13;99535.34;;;18.67;74.62
72465;BME280;60471;52.150;4.508;2023-08-01T02:10:39;99514.91;;;18.83;74.22
72465;BME280;60471;52.150;4.508;2023-08-01T02:13:06;99528.28;;;18.83;74.34
72465;BME280;60471;52.150;4.508;2023-08-01T02:15:34;99500.50;;;18.76;74.38
72465;BME280;60471;52.150;4.508;2023-08-01T02:18:00;99524.66;;;18.93;74.07
72465;BME280;60471;52.150;4.508;2023-08-01T02:20:26;99516.19;;;18.71;74.51
72465;BME280;60471;52.150;4.508;2023-08-01T02:22:54;99504.44;;;18.64;73.64
72465;BME280;60471;52.150;4.508;2023-08-01T02:25:21;99519.53;;;18.73;72.96
72465;BME280;60471;52.150;4.508;2023-08-01T02:27:47;99520.19;;;18.67;72.79
72465;BME280;60471;52.150;4.508;2023-08-01T02:30:13;99498.63;;;18.69;72.60
72465;BME280;60471;52.150;4.508;2023-08-01T02:32:39;99502.03;;;18.79;72.80
72465;BME280;60471;52.150;4.508;2023-08-01T02:35:06;99500.97;;;18.72;73.21
72465;BME280;60471;52.150;4.508;2023-08-01T02:37:32;99510.31;;;18.68;73.54
72465;BME280;60471;52.150;4.508;2023-08-01T02:39:58;99506.53;;;18.78;73.34
72465;BME280;60471;52.150;4.508;2023-08-01T02:42:25;99511.84;;;18.70;73.35
72465;BME280;60471;52.150;4.508;2023-08-01T02:44:51;99535.41;;;18.75;73.76
72465;BME280;60471;52.150;4.508;2023-08-01T02:47:17;99511.16;;;18.50;74.06
72465;BME280;60471;52.150;4.508;2023-08-01T02:49:43;99532.53;;;18.50;74.15
72465;BME280;60471;52.150;4.508;2023-08-01T02:52:10;99520.44;;;18.38;74.63
72465;BME280;60471;52.150;4.508;2023-08-01T02:54:36;99526.72;;;18.55;73.83
72465;BME280;60471;52.150;4.508;2023-08-01T02:57:02;99514.19;;;18.55;73.64
72465;BME280;60471;52.150;4.508;2023-08-01T02:59:29;99524.09;;;18.63;73.24
72465;BME280;60471;52.150;4.508;2023-08-01T03:01:55;99522.34;;;18.46;74.62
72465;BME280;60471;52.150;4.508;2023-08-01T03:04:21;99514.09;;;18.39;75.25
72465;BME280;60471;52.150;4.508;2023-08-01T03:06:47;99513.28;;;18.65;74.62
72465;BME280;60471;52.150;4.508;2023-08-01T03:09:13;99506.84;;;18.75;74.57
72465;BME280;60471;52.150;4.508;2023-08-01T03:11:40;99517.03;;;18.54;75.41
72465;BME280;60471;52.150;4.508;2023-08-01T03:14:06;99513.00;;;18.50;75.60
72465;BME280;60471;52.150;4.508;2023-08-01T03:16:32;99535.69;;;18.46;76.14
72465;BME280;60471;52.150;4.508;2023-08-01T03:18:59;99537.44;;;18.37;76.26
72465;BME280;60471;52.150;4.508;2023-08-01T03:21:33;99529.97;;;18.41;76.25
72465;BME280;60471;52.150;4.508;2023-08-01T03:24:01;99522.72;;;18.33;77.18
72465;BME280;60471;52.150;4.508;2023-08-01T03:26:28;99522.84;;;18.49;75.77
72465;BME280;60471;52.150;4.508;2023-08-01T03:28:55;99533.31;;;18.43;75.87
72465;BME280;60471;52.150;4.508;2023-08-01T03:31:22;99527.69;;;18.10;76.49
72465;BME280;60471;52.150;4.508;2023-08-01T03:33:49;99532.88;;;18.30;75.93
72465;BME280;60471;52.150;4.508;2023-08-01T03:36:15;99516.53;;;18.33;75.56
72465;BME280;60471;52.150;4.508;2023-08-01T03:38:41;99519.66;;;18.46;75.32
72465;BME280;60471;52.150;4.508;2023-08-01T03:41:07;99523.94;;;18.39;75.43
72465;BME280;60471;52.150;4.508;2023-08-01T03:43:34;99520.78;;;18.43;74.58
72465;BME280;60471;52.150;4.508;2023-08-01T03:46:00;99539.22;;;18.54;74.39
72465;BME280;60471;52.150;4.508;2023-08-01T03:48:27;99558.34;;;18.42;75.08
72465;BME280;60471;52.150;4.508;2023-08-01T03:50:53;99523.78;;;18.40;75.21
72465;BME280;60471;52.150;4.508;2023-08-01T03:53:20;99549.66;;;18.40;75.42
72465;BME280;60471;52.150;4.508;2023-08-01T03:55:46;99533.72;;;18.30;76.43
72465;BME280;60471;52.150;4.508;2023-08-01T03:58:14;99533.09;;;18.36;76.61
72465;BME280;60471;52.150;4.508;2023-08-01T04:00:41;99530.59;;;18.35;77.12
72465;BME280;60471;52.150;4.508;2023-08-01T04:03:07;99537.63;;;18.36;77.02
72465;BME280;60471;52.150;4.508;2023-08-01T04:05:33;99544.78;;;18.35;76.92
72465;BME280;60471;52.150;4.508;2023-08-01T04:07:59;99535.94;;;18.17;77.66
72465;BME280;60471;52.150;4.508;2023-08-01T04:10:26;99541.88;;;18.11;77.85
72465;BME280;60471;52.150;4.508;2023-08-01T04:12:52;99540.38;;;18.08;77.47
72465;BME280;60471;52.150;4.508;2023-08-01T04:15:18;99525.88;;;18.11;77.30
72465;BME280;60471;52.150;4.508;2023-08-01T04:17:45;99537.03;;;18.06;77.35
72465;BME280;60471;52.150;4.508;2023-08-01T04:20:11;99545.13;;;18.14;77.39
72465;BME280;60471;52.150;4.508;2023-08-01T04:22:38;99543.56;;;18.12;76.88
72465;BME280;60471;52.150;4.508;2023-08-01T04:25:04;99537.63;;;18.18;75.72
72465;BME280;60471;52.150;4.508;2023-08-01T04:27:31;99537.03;;;18.24;74.91
72465;BME280;60471;52.150;4.508;2023-08-01T04:29:57;99551.69;;;18.02;75.40
72465;BME280;60471;52.150;4.508;2023-08-01T04:32:24;99544.25;;;18.32;73.81
72465;BME280;60471;52.150;4.508;2023-08-01T04:34:50;99541.38;;;18.25;74.08
72465;BME280;60471;52.150;4.508;2023-08-01T04:37:16;99531.44;;;18.17;74.72
72465;BME280;60471;52.150;4.508;2023-08-01T04:39:46;99542.56;;;18.31;73.92
72465;BME280;60471;52.150;4.508;2023-08-01T04:42:13;99560.41;;;18.12;73.30
72465;BME280;60471;52.150;4.508;2023-08-01T04:44:39;99566.16;;;18.17;72.79
72465;BME280;60471;52.150;4.508;2023-08-01T04:47:05;99534.28;;;18.16;72.95
72465;BME280;60471;52.150;4.508;2023-08-01T04:49:31;99538.53;;;18.09;73.71
72465;BME280;60471;52.150;4.508;2023-08-01T04:51:58;99533.03;;;18.28;72.57
72465;BME280;60471;52.150;4.508;2023-08-01T04:54:24;99545.47;;;18.37;72.32
72465;BME280;60471;52.150;4.508;2023-08-01T04:56:50;99547.69;;;18.24;72.78
72465;BME280;60471;52.150;4.508;2023-08-01T04:59:16;99547.63;;;18.16;72.67
72465;BME280;60471;52.150;4.508;2023-08-01T05:01:42;99555.63;;;18.16;72.61
72465;BME280;60471;52.150;4.508;2023-08-01T05:04:09;99544.56;;;18.29;72.23
72465;BME280;60471;52.150;4.508;2023-08-01T05:06:35;99549.41;;;18.33;72.19
72465;BME280;60471;52.150;4.508;2023-08-01T05:09:02;99552.72;;;18.27;71.94
72465;BME280;60471;52.150;4.508;2023-08-01T05:11:28;99546.47;;;18.18;72.70
72465;BME280;60471;52.150;4.508;2023-08-01T05:13:54;99542.78;;;18.37;72.16
72465;BME280;60471;52.150;4.508;2023-08-01T05:16:21;99538.22;;;18.30;72.30
72465;BME280;60471;52.150;4.508;2023-08-01T05:18:47;99547.06;;;18.12;73.21
72465;BME280;60471;52.150;4.508;2023-08-01T05:21:13;99543.03;;;18.26;72.89
72465;BME280;60471;52.150;4.508;2023-08-01T05:23:39;99530.78;;;18.41;72.78
72465;BME280;60471;52.150;4.508;2023-08-01T05:26:05;99539.94;;;18.57;71.95
72465;BME280;60471;52.150;4.508;2023-08-01T05:28:32;99535.22;;;18.33;72.22
72465;BME280;60471;52.150;4.508;2023-08-01T05:30:58;99545.53;;;18.45;72.08
72465;BME280;60471;52.150;4.508;2023-08-01T05:33:24;99540.97;;;18.81;70.83
72465;BME280;60471;52.150;4.508;2023-08-01T05:35:50;99546.09;;;19.01;69.08
72465;BME280;60471;52.150;4.508;2023-08-01T05:38:17;99540.75;;;19.01;68.63
72465;BME280;60471;52.150;4.508;2023-08-01T05:40:43;99550.66;;;19.17;67.97
72465;BME280;60471;52.150;4.508;2023-08-01T05:43:09;99567.66;;;19.07;67.34
72465;BME280;60471;52.150;4.508;2023-08-01T05:45:35;99578.56;;;18.88;68.52
72465;BME280;60471;52.150;4.508;2023-08-01T05:48:02;99551.78;;;19.06;68.31
72465;BME280;60471;52.150;4.508;2023-08-01T05:50:28;99555.63;;;19.03;68.30
72465;BME280;60471;52.150;4.508;2023-08-01T05:52:54;99561.13;;;19.02;67.77
72465;BME280;60471;52.150;4.508;2023-08-01T05:55:21;99566.38;;;19.20;68.29
72465;BME280;60471;52.150;4.508;2023-08-01T05:57:47;99562.44;;;19.74;66.62
72465;BME280;60471;52.150;4.508;2023-08-01T06:00:15;99565.38;;;19.55;66.86
72465;BME280;60471;52.150;4.508;2023-08-01T06:02:41;99554.03;;;19.61;66.13
72465;BME280;60471;52.150;4.508;2023-08-01T06:05:08;99567.94;;;19.30;66.85
72465;BME280;60471;52.150;4.508;2023-08-01T06:07:34;99567.81;;;19.40;66.59
72465;BME280;60471;52.150;4.508;2023-08-01T06:10:00;99570.16;;;19.35;67.01
72465;BME280;60471;52.150;4.508;2023-08-01T06:12:27;99566.28;;;19.29;67.43
72465;BME280;60471;52.150;4.508;2023-08-01T06:14:53;99582.31;;;19.21;67.80
72465;BME280;60471;52.150;4.508;2023-08-01T06:17:19;99581.44;;;19.21;68.51
72465;BME280;60471;52.150;4.508;2023-08-01T06:19:45;99573.22;;;18.88;69.96
72465;BME280;60471;52.150;4.508;2023-08-01T06:22:12;99574.19;;;19.05;69.84
72465;BME280;60471;52.150;4.508;2023-08-01T06:24:38;99606.00;;;18.90;70.16
72465;BME280;60471;52.150;4.508;2023-08-01T06:27:05;99579.63;;;18.95;70.28
72465;BME280;60471;52.150;4.508;2023-08-01T06:29:31;99583.75;;;19.16;70.14
72465;BME280;60471;52.150;4.508;2023-08-01T06:31:57;99577.19;;;19.10;70.28
72465;BME280;60471;52.150;4.508;2023-08-01T06:34:24;99579.88;;;19.10;69.55
72465;BME280;60471;52.150;4.508;2023-08-01T06:36:50;99599.84;;;18.98;70.17
72465;BME280;60471;52.150;4.508;2023-08-01T06:39:17;99599.56;;;19.01;69.78
72465;BME280;60471;52.150;4.508;2023-08-01T06:41:43;99577.84;;;19.04;69.79
72465;BME280;60471;52.150;4.508;2023-08-01T06:44:09;99593.63;;;18.89;70.35
72465;BME280;60471;52.150;4.508;2023-08-01T06:46:35;99587.38;;;19.06;69.60
72465;BME280;60471;52.150;4.508;2023-08-01T06:49:02;99588.91;;;19.09;69.63
72465;BME280;60471;52.150;4.508;2023-08-01T06:51:28;99635.91;;;19.46;67.75
72465;BME280;60471;52.150;4.508;2023-08-01T06:53:54;99633.84;;;19.05;68.08
72465;BME280;60471;52.150;4.508;2023-08-01T06:56:20;99605.75;;;19.01;68.07
72465;BME280;60471;52.150;4.508;2023-08-01T06:58:47;99664.84;;;18.98;68.25
72465;BME280;60471;52.150;4.508;2023-08-01T07:01:14;99614.06;;;18.98;68.52
72465;BME280;60471;52.150;4.508;2023-08-01T07:03:40;99600.97;;;19.13;67.85
72465;BME280;60471;52.150;4.508;2023-08-01T07:06:06;99600.53;;;19.26;67.64
72465;BME280;60471;52.150;4.508;2023-08-01T07:08:32;99601.31;;;19.52;66.99
72465;BME280;60471;52.150;4.508;2023-08-01T07:10:59;99653.59;;;19.38;66.40
72465;BME280;60471;52.150;4.508;2023-08-01T07:13:25;99626.81;;;19.04;67.76
72465;BME280;60471;52.150;4.508;2023-08-01T07:15:52;99618.38;;;19.17;68.01
72465;BME280;60471;52.150;4.508;2023-08-01T07:18:18;99626.41;;;19.51;66.98
72465;BME280;60471;52.150;4.508;2023-08-01T07:20:44;99612.47;;;19.39;67.12
72465;BME280;60471;52.150;4.508;2023-08-01T07:23:11;99652.66;;;19.22;66.89
72465;BME280;60471;52.150;4.508;2023-08-01T07:25:37;99623.47;;;19.02;66.98
72465;BME280;60471;52.150;4.508;2023-08-01T07:28:03;99631.38;;;19.12;66.50
72465;BME280;60471;52.150;4.508;2023-08-01T07:30:29;99623.94;;;19.32;66.24
72465;BME280;60471;52.150;4.508;2023-08-01T07:32:56;99649.84;;;19.23;66.27
72465;BME280;60471;52.150;4.508;2023-08-01T07:35:22;99646.59;;;19.11;67.06
72465;BME280;60471;52.150;4.508;2023-08-01T07:37:48;99643.75;;;19.13;66.95
72465;BME280;60471;52.150;4.508;2023-08-01T07:40:14;99635.88;;;19.37;66.54
72465;BME280;60471;52.150;4.508;2023-08-01T07:42:40;99629.41;;;19.48;66.06
72465;BME280;60471;52.150;4.508;2023-08-01T07:45:07;99667.38;;;19.78;64.63
72465;BME280;60471;52.150;4.508;2023-08-01T07:47:34;99640.31;;;19.55;64.70
72465;BME280;60471;52.150;4.508;2023-08-01T07:50:00;99628.16;;;20.27;62.88
72465;BME280;60471;52.150;4.508;2023-08-01T07:52:26;99639.81;;;19.93;63.82
72465;BME280;60471;52.150;4.508;2023-08-01T07:54:52;99638.91;;;19.17;66.37
72465;BME280;60471;52.150;4.508;2023-08-01T07:57:19;99647.72;;;19.35;66.58
72465;BME280;60471;52.150;4.508;2023-08-01T07:59:45;99652.25;;;19.34;65.25
72465;BME280;60471;52.150;4.508;2023-08-01T08:02:12;99703.09;;;19.42;65.28
72465;BME280;60471;52.150;4.508;2023-08-01T08:04:38;99642.44;;;19.51;65.94
72465;BME280;60471;52.150;4.508;2023-08-01T08:07:05;99648.91;;;19.66;65.96
72465;BME280;60471;52.150;4.508;2023-08-01T08:09:31;99653.63;;;19.73;65.65
72465;BME280;60471;52.150;4.508;2023-08-01T08:11:57;99676.06;;;19.80;65.45
72465;BME280;60471;52.150;4.508;2023-08-01T08:14:23;99669.78;;;19.63;64.94
72465;BME280;60471;52.150;4.508;2023-08-01T08:16:50;99672.06;;;19.84;65.14
72465;BME280;60471;52.150;4.508;2023-08-01T08:19:16;99655.91;;;19.33;66.81
72465;BME280;60471;52.150;4.508;2023-08-01T08:21:43;99677.09;;;19.27;66.98
72465;BME280;60471;52.150;4.508;2023-08-01T08:24:09;99652.44;;;19.75;65.87
72465;BME280;60471;52.150;4.508;2023-08-01T08:26:36;99685.34;;;19.59;65.76
72465;BME280;60471;52.150;4.508;2023-08-01T08:29:05;99659.22;;;19.27;66.99
72465;BME280;60471;52.150;4.508;2023-08-01T08:31:31;99653.53;;;19.30;67.10
72465;BME280;60471;52.150;4.508;2023-08-01T08:33:57;99662.97;;;19.42;66.25
72465;BME280;60471;52.150;4.508;2023-08-01T08:36:24;99657.53;;;19.26;66.01
72465;BME280;60471;52.150;4.508;2023-08-01T08:38:50;99651.88;;;19.03;67.50
72465;BME280;60471;52.150;4.508;2023-08-01T08:41:26;99718.97;;;19.36;66.98
72465;BME280;60471;52.150;4.508;2023-08-01T08:43:56;99698.47;;;19.53;66.38
72465;BME280;60471;52.150;4.508;2023-08-01T08:46:28;99669.03;;;19.53;66.25
72465;BME280;60471;52.150;4.508;2023-08-01T08:48:56;99708.66;;;20.17;64.39
72465;BME280;60471;52.150;4.508;2023-08-01T08:51:26;99665.66;;;20.27;63.28
72465;BME280;60471;52.150;4.508;2023-08-01T08:53:53;99667.38;;;19.86;64.61
72465;BME280;60471;52.150;4.508;2023-08-01T08:56:23;99668.66;;;20.16;64.15
72465;BME280;60471;52.150;4.508;2023-08-01T08:58:49;99679.34;;;20.00;63.14
72465;BME280;60471;52.150;4.508;2023-08-01T09:01:17;99681.50;;;20.54;61.77
72465;BME280;60471;52.150;4.508;2023-08-01T09:03:44;99687.34;;;20.50;61.42
72465;BME280;60471;52.150;4.508;2023-08-01T09:06:14;99680.03;;;19.67;63.92
72465;BME280;60471;52.150;4.508;2023-08-01T09:08:56;99723.81;;;19.92;63.38
72465;BME280;60471;52.150;4.508;2023-08-01T09:11:28;99704.97;;;20.18;62.85
72465;BME280;60471;52.150;4.508;2023-08-01T09:13:54;99674.94;;;20.41;61.52
72465;BME280;60471;52.150;4.508;2023-08-01T09:16:21;99684.25;;;20.28;62.40
72465;BME280;60471;52.150;4.508;2023-08-01T09:21:21;99692.59;;;20.09;62.86
72465;BME280;60471;52.150;4.508;2023-08-01T09:23:48;99720.34;;;20.42;62.15
72465;BME280;60471;52.150;4.508;2023-08-01T09:26:15;99692.56;;;20.76;60.65
72465;BME280;60471;52.150;4.508;2023-08-01T09:28:42;99725.13;;;20.39;60.92
72465;BME280;60471;52.150;4.508;2023-08-01T09:31:10;99699.78;;;20.17;62.19
72465;BME280;60471;52.150;4.508;2023-08-01T09:33:41;99715.31;;;20.05;63.11
72465;BME280;60471;52.150;4.508;2023-08-01T09:36:08;99703.78;;;20.55;61.55
72465;BME280;60471;52.150;4.508;2023-08-01T09:38:37;99707.13;;;21.14;59.44
72465;BME280;60471;52.150;4.508;2023-08-01T09:41:04;99739.31;;;20.15;61.72
72465;BME280;60471;52.150;4.508;2023-08-01T09:43:34;99733.19;;;20.39;61.39
72465;BME280;60471;52.150;4.508;2023-08-01T09:46:06;99728.16;;;20.36;60.87
72465;BME280;60471;52.150;4.508;2023-08-01T09:48:32;99726.09;;;20.21;61.23
72465;BME280;60471;52.150;4.508;2023-08-01T09:53:32;99719.03;;;20.79;61.09
72465;BME280;60471;52.150;4.508;2023-08-01T09:56:00;99731.28;;;21.47;58.60
72465;BME280;60471;52.150;4.508;2023-08-01T09:58:32;99727.53;;;20.50;60.59
72465;BME280;60471;52.150;4.508;2023-08-01T10:01:03;99738.53;;;20.39;61.12
72465;BME280;60471;52.150;4.508;2023-08-01T10:03:30;99731.91;;;20.51;61.79
72465;BME280;60471;52.150;4.508;2023-08-01T10:05:57;99719.03;;;20.71;60.99
72465;BME280;60471;52.150;4.508;2023-08-01T10:08:25;99722.91;;;21.41;58.18
72465;BME280;60471;52.150;4.508;2023-08-01T10:10:53;99734.66;;;21.00;59.81
72465;BME280;60471;52.150;4.508;2023-08-01T10:13:23;99738.31;;;20.66;60.20
72465;BME280;60471;52.150;4.508;2023-08-01T10:15:53;99755.53;;;20.55;60.54
72465;BME280;60471;52.150;4.508;2023-08-01T10:18:21;99741.50;;;20.27;61.25
72465;BME280;60471;52.150;4.508;2023-08-01T10:20:48;99726.84;;;21.78;58.16
72465;BME280;60471;52.150;4.508;2023-08-01T10:23:16;99730.22;;;22.27;56.21
72465;BME280;60471;52.150;4.508;2023-08-01T10:25:43;99730.94;;;21.25;58.80
72465;BME280;60471;52.150;4.508;2023-08-01T10:28:11;99738.00;;;21.18;58.23
72465;BME280;60471;52.150;4.508;2023-08-01T10:30:37;99747.47;;;20.47;59.91
72465;BME280;60471;52.150;4.508;2023-08-01T10:33:03;99765.84;;;20.34;59.99
72465;BME280;60471;52.150;4.508;2023-08-01T10:35:33;99737.69;;;20.30;60.72
72465;BME280;60471;52.150;4.508;2023-08-01T10:38:12;99753.75;;;20.97;58.27
72465;BME280;60471;52.150;4.508;2023-08-01T10:40:40;99760.50;;;21.33;57.37
72465;BME280;60471;52.150;4.508;2023-08-01T10:43:21;99747.84;;;21.66;56.36
72465;BME280;60471;52.150;4.508;2023-08-01T10:45:48;99757.50;;;23.01;52.80
72465;BME280;60471;52.150;4.508;2023-08-01T10:48:27;99745.63;;;24.00;49.50
72465;BME280;60471;52.150;4.508;2023-08-01T10:50:56;99755.88;;;24.56;47.65
72465;BME280;60471;52.150;4.508;2023-08-01T10:53:23;99753.59;;;22.03;54.21
72465;BME280;60471;52.150;4.508;2023-08-01T10:55:49;99753.16;;;23.90;49.36
72465;BME280;60471;52.150;4.508;2023-08-01T10:58:15;99757.41;;;25.01;45.60
72465;BME280;60471;52.150;4.508;2023-08-01T11:00:42;99754.25;;;24.62;47.50
72465;BME280;60471;52.150;4.508;2023-08-01T11:03:08;99762.03;;;23.76;50.00
72465;BME280;60471;52.150;4.508;2023-08-01T11:05:35;99767.78;;;22.36;55.96
72465;BME280;60471;52.150;4.508;2023-08-01T11:08:02;99743.97;;;24.50;49.13
72465;BME280;60471;52.150;4.508;2023-08-01T11:10:31;99766.00;;;24.90;48.13
72465;BME280;60471;52.150;4.508;2023-08-01T11:12:59;99765.09;;;22.98;52.99
72465;BME280;60471;52.150;4.508;2023-08-01T11:15:26;99760.63;;;21.48;55.23
72465;BME280;60471;52.150;4.508;2023-08-01T11:17:53;99781.25;;;21.15;56.65
72465;BME280;60471;52.150;4.508;2023-08-01T11:20:23;99800.56;;;21.19;57.05
72465;BME280;60471;52.150;4.508;2023-08-01T11:22:54;99767.03;;;23.27;50.86
72465;BME280;60471;52.150;4.508;2023-08-01T11:25:34;99771.81;;;24.72;47.21
72465;BME280;60471;52.150;4.508;2023-08-01T11:28:05;99783.28;;;23.33;50.14
72465;BME280;60471;52.150;4.508;2023-08-01T11:30:33;99805.75;;;22.33;53.75
72465;BME280;60471;52.150;4.508;2023-08-01T11:33:00;99795.66;;;21.87;52.33
72465;BME280;60471;52.150;4.508;2023-08-01T11:35:28;99782.84;;;22.76;51.59
72465;BME280;60471;52.150;4.508;2023-08-01T11:37:55;99788.53;;;23.12;50.40
72465;BME280;60471;52.150;4.508;2023-08-01T11:40:22;99778.97;;;24.44;47.47
72465;BME280;60471;52.150;4.508;2023-08-01T11:42:49;99804.47;;;25.13;46.22
72465;BME280;60471;52.150;4.508;2023-08-01T11:45:20;99774.22;;;23.87;48.83
72465;BME280;60471;52.150;4.508;2023-08-01T11:47:47;99789.75;;;24.80;47.75
72465;BME280;60471;52.150;4.508;2023-08-01T11:50:19;99820.84;;;25.12;45.89
72465;BME280;60471;52.150;4.508;2023-08-01T11:52:48;99836.34;;;22.71;51.78
72465;BME280;60471;52.150;4.508;2023-08-01T11:55:21;99808.69;;;20.68;61.26
72465;BME280;60471;52.150;4.508;2023-08-01T11:58:00;99828.84;;;19.42;66.81
72465;BME280;60471;52.150;4.508;2023-08-01T12:00:28;99832.38;;;20.47;65.70
72465;BME280;60471;52.150;4.508;2023-08-01T12:03:13;99805.69;;;20.79;63.69
72465;BME280;60471;52.150;4.508;2023-08-01T12:05:40;99816.06;;;20.32;65.02
72465;BME280;60471;52.150;4.508;2023-08-01T12:08:08;99818.22;;;20.63;61.74
72465;BME280;60471;52.150;4.508;2023-08-01T12:10:45;99803.25;;;20.44;61.48
72465;BME280;60471;52.150;4.508;2023-08-01T12:13:25;99839.69;;;20.37;61.83
72465;BME280;60471;52.150;4.508;2023-08-01T12:15:53;99809.59;;;21.09;59.62
72465;BME280;60471;52.150;4.508;2023-08-01T12:18:23;99828.91;;;21.37;58.83
72465;BME280;60471;52.150;4.508;2023-08-01T12:20:51;99874.97;;;22.39;55.04
72465;BME280;60471;52.150;4.508;2023-08-01T12:23:18;99822.78;;;23.18;54.52
72465;BME280;60471;52.150;4.508;2023-08-01T12:25:45;99813.28;;;24.86;48.63
72465;BME280;60471;52.150;4.508;2023-08-01T12:28:13;99848.88;;;25.11;46.50
72465;BME280;60471;52.150;4.508;2023-08-01T12:30:40;99815.97;;;23.30;50.56
72465;BME280;60471;52.150;4.508;2023-08-01T12:33:08;99845.44;;;22.70;52.90
72465;BME280;60471;52.150;4.508;2023-08-01T12:35:39;99804.19;;;22.77;53.28
72465;BME280;60471;52.150;4.508;2023-08-01T12:38:07;99860.97;;;21.31;56.97
72465;BME280;60471;52.150;4.508;2023-08-01T12:40:33;99825.38;;;21.86;55.50
72465;BME280;60471;52.150;4.508;2023-08-01T12:43:00;99815.06;;;22.61;52.42
72465;BME280;60471;52.150;4.508;2023-08-01T12:45:26;99831.09;;;21.83;54.94
72465;BME280;60471;52.150;4.508;2023-08-01T12:47:52;99839.66;;;21.54;54.44
72465;BME280;60471;52.150;4.508;2023-08-01T12:50:18;99831.91;;;21.83;54.26
72465;BME280;60471;52.150;4.508;2023-08-01T12:52:44;99827.63;;;22.30;52.92
72465;BME280;60471;52.150;4.508;2023-08-01T12:55:11;99877.56;;;21.83;54.46
72465;BME280;60471;52.150;4.508;2023-08-01T12:57:37;99853.59;;;21.82;55.82
72465;BME280;60471;52.150;4.508;2023-08-01T13:00:04;99876.41;;;21.86;55.66
72465;BME280;60471;52.150;4.508;2023-08-01T13:02:31;99817.00;;;21.48;56.28
72465;BME280;60471;52.150;4.508;2023-08-01T13:04:57;99842.81;;;22.93;52.00